logo
Rechercher aéroport 
image banner adimage banner adimage banner ad
image banner ad

LZSV - Spisska Nova Ves

Situé à Spisska Nova Ves, Slovakia

ICAO - LZSV, IATA -

Données fournies par Airmate  

Information générale

Coordonnées: N48°56'26" E20°32'1"
Élévation : 1624 feet MSL.
Variation magnétique : 4.926° East
Voir autres Aéroports à Košice

Données opérationnelles

Special qualification required
Heure actuelle UTC:
Heure actuelle locale:
Météo à : LZTT - Poprad-Tatry ( 26 km )
METAR: LZTT 230000Z VRB01KT 9999 FEW010 BKN023 12/12 Q1013
TAF: TAF LZTT 222315Z 2300/2400 VRB02KT 9999 FEW015 BKN025 TEMPO 2300/2306 2000 BCFG BR BKN008 PROB30 TEMPO 2300/2306 0300 FG BKN003 TEMPO 2308/2318 27012KT 4500 SHRA SCT020CB PROB30 TEMPO 2310/2317 2000 TSRA BECMG 2310/2312 07009KT PROB30 TEMPO 2320/2400 2500 BCFG BR BKN008
Voir NOTAMs / SUP AIP / TFR affectant cet aéroport [VIEW]
Fréquences de communication: [VIEW]

Pistes:

Identifiant RWYQFULongueur (ft)Largeur (ft)SurfaceLDA (ft)
12R446998GRASS
30L446998GRASS
12L446998GRASS
30R446998GRASS

Coordonnées de l'aéroport

Adresse: Spisska Nova Ves Slovakia

Autres services d'aviation

Écoles de pilotage

Tech-Mont

Tech-Mont

Clubs d'aviation (sans but lucratif)

Aeroklub Spišská

Aeroklub Spišská
aksnv@zoznam.sk+421534412373

Ombre Letecká Škola Snv

Ombre Letecká Škola Snv
info@ombre.sk+421905906551

Vue satellite de LZSV